Time;durP1;ratioP1;P1;durP2;ratioP2;P2;SDS_P1;SDS_P2;PMS_P1;PMS_P2;Temp;Humidity;BMP_temperature;BMP_pressure;BME280_temperature;BME280_humidity;BME280_pressure;Samples;Min_cycle;Max_cycle;Signal;HPM_P1;HPM_P2
2022/03/24 00:01:27;;;;;;;2.72;1.70;;;22.30;63.20;;;;;;4953717;28;20246;-56
2022/03/24 00:03:57;;;;;;;2.65;1.65;;;22.30;63.00;;;;;;4953524;28;20195;-57
2022/03/24 00:06:28;;;;;;;4.40;1.77;;;22.40;63.00;;;;;;4952339;28;20742;-56
2022/03/24 00:08:58;;;;;;;3.05;2.03;;;22.40;63.00;;;;;;4952430;28;20276;-55
2022/03/24 00:11:29;;;;;;;2.00;1.70;;;22.40;62.90;;;;;;4952454;28;20246;-56
2022/03/24 00:14:00;;;;;;;2.17;1.50;;;22.40;62.80;;;;;;4952554;28;20613;-56
2022/03/24 00:16:32;;;;;;;1.75;1.35;;;22.50;62.80;;;;;;4953184;28;20544;-55
2022/03/24 00:19:03;;;;;;;2.33;1.45;;;22.50;62.90;;;;;;4952734;28;20579;-54
2022/03/24 00:21:33;;;;;;;1.88;1.45;;;22.50;62.90;;;;;;4953323;28;20199;-57
2022/03/24 00:24:08;;;;;;;4.30;1.50;;;22.50;62.80;;;;;;4972773;23;20230;-58
2022/03/24 00:26:38;;;;;;;2.10;1.27;;;22.60;62.80;;;;;;4971233;28;20217;-57
2022/03/24 00:29:10;;;;;;;3.28;1.63;;;22.60;62.70;;;;;;4971974;28;20200;-59
2022/03/24 00:31:42;;;;;;;2.13;1.60;;;22.60;62.60;;;;;;4971746;28;20228;-59
2022/03/24 00:34:13;;;;;;;3.63;1.50;;;22.60;62.60;;;;;;4971837;28;20194;-58
2022/03/24 00:36:44;;;;;;;2.42;1.63;;;22.70;62.70;;;;;;4970498;28;20882;-58
2022/03/24 00:39:14;;;;;;;2.97;1.58;;;22.70;62.60;;;;;;4971606;28;20198;-59
2022/03/24 00:41:45;;;;;;;3.28;1.95;;;22.80;62.70;;;;;;4971713;28;20202;-58
2022/03/24 00:44:16;;;;;;;2.55;1.60;;;22.80;62.70;;;;;;4971616;28;20562;-58
2022/03/24 00:46:48;;;;;;;3.80;1.77;;;22.80;62.60;;;;;;4971624;28;20272;-59
2022/03/24 00:49:18;;;;;;;3.08;1.70;;;22.90;62.60;;;;;;4971319;28;20203;-58
2022/03/24 00:51:49;;;;;;;2.38;1.48;;;22.90;62.60;;;;;;4970842;28;20285;-57
2022/03/24 00:54:20;;;;;;;2.60;1.67;;;22.90;62.80;;;;;;4971222;28;20194;-58
2022/03/24 00:56:51;;;;;;;2.40;1.70;;;22.90;62.50;;;;;;4970414;28;20214;-58
2022/03/24 00:59:22;;;;;;;3.45;1.77;;;23.00;62.60;;;;;;4970226;28;20547;-58
2022/03/24 01:01:55;;;;;;;5.10;1.70;;;23.00;62.60;;;;;;4971223;28;20202;-58
2022/03/24 01:04:26;;;;;;;3.55;1.83;;;23.00;62.70;;;;;;4968016;28;20579;-57
2022/03/24 01:06:56;;;;;;;2.35;1.70;;;23.00;62.70;;;;;;4970487;28;20222;-58
2022/03/24 01:09:27;;;;;;;4.15;1.90;;;23.10;63.60;;;;;;4971200;28;20265;-57
2022/03/24 01:11:57;;;;;;;5.28;2.15;;;23.10;62.80;;;;;;4971150;28;20226;-57
2022/03/24 01:14:28;;;;;;;3.20;2.00;;;23.10;62.80;;;;;;4970497;28;20205;-57
2022/03/24 01:17:01;;;;;;;2.78;1.50;;;23.10;62.70;;;;;;4970627;28;20301;-58
2022/03/24 01:19:32;;;;;;;3.70;2.22;;;23.20;62.70;;;;;;4971420;28;20218;-58
2022/03/24 01:22:03;;;;;;;4.93;1.85;;;23.20;62.70;;;;;;4971318;28;20206;-58
2022/03/24 01:24:37;;;;;;;5.43;2.15;;;23.30;62.60;;;;;;4994689;22;20706;-58
2022/03/24 01:27:10;;;;;;;3.80;2.10;;;23.30;62.60;;;;;;4989685;28;20236;-58
2022/03/24 01:29:40;;;;;;;4.68;2.35;;;23.30;62.60;;;;;;4989791;28;20204;-59
2022/03/24 01:32:13;;;;;;;3.35;2.13;;;23.40;62.50;;;;;;4989927;28;20276;-57
2022/03/24 01:34:47;;;;;;;3.10;1.90;;;23.40;62.50;;;;;;4990063;28;20201;-58
2022/03/24 01:37:18;;;;;;;5.03;2.45;;;23.40;62.50;;;;;;4989569;28;20214;-56
2022/03/24 01:39:48;;;;;;;4.10;2.22;;;23.50;62.60;;;;;;4990354;28;20197;-58
2022/03/24 01:42:20;;;;;;;5.90;2.00;;;23.50;62.50;;;;;;4988253;28;20194;-59
2022/03/24 01:44:51;;;;;;;4.20;1.92;;;23.50;62.50;;;;;;4989514;28;20248;-59
2022/03/24 01:47:23;;;;;;;5.93;2.42;;;23.60;62.50;;;;;;4990186;28;20300;-58
2022/03/24 01:49:58;;;;;;;6.95;2.20;;;23.60;62.40;;;;;;4990010;28;20194;-59
2022/03/24 01:52:30;;;;;;;5.28;2.25;;;23.60;62.40;;;;;;4988868;28;20233;-58
2022/03/24 01:55:01;;;;;;;5.97;2.38;;;23.70;62.50;;;;;;4989165;28;20276;-59
2022/03/24 01:57:32;;;;;;;4.38;2.00;;;23.70;62.40;;;;;;4988893;28;20273;-59
2022/03/24 02:00:03;;;;;;;4.22;2.55;;;23.70;62.40;;;;;;4989644;28;20197;-59
2022/03/24 02:02:37;;;;;;;5.43;2.42;;;23.80;62.40;;;;;;4990342;28;20200;-57
2022/03/24 02:05:08;;;;;;;5.53;2.20;;;23.80;62.40;;;;;;4988381;28;20275;-58
2022/03/24 02:07:39;;;;;;;4.55;2.30;;;23.80;62.30;;;;;;4974790;28;20218;-58
2022/03/24 02:10:13;;;;;;;5.95;2.38;;;23.80;62.30;;;;;;4989266;28;20260;-59
2022/03/24 02:12:44;;;;;;;4.13;2.33;;;23.90;62.30;;;;;;4989291;28;20228;-59
2022/03/24 02:15:15;;;;;;;4.05;2.10;;;23.90;62.20;;;;;;4989094;28;20205;-59
2022/03/24 02:17:48;;;;;;;4.18;2.00;;;23.90;62.20;;;;;;4989218;28;20224;-58
2022/03/24 02:20:19;;;;;;;7.63;2.85;;;24.00;62.20;;;;;;4988800;28;20677;-58
2022/03/24 02:22:56;;;;;;;4.15;2.00;;;24.00;62.20;;;;;;4988488;28;20204;-58
2022/03/24 02:25:31;;;;;;;6.43;2.17;;;24.00;62.00;;;;;;4988808;28;20220;-59
2022/03/24 02:28:03;;;;;;;5.53;2.38;;;24.10;62.00;;;;;;4988848;28;20209;-59
2022/03/24 02:30:35;;;;;;;4.97;2.40;;;24.10;61.90;;;;;;4988906;28;20201;-59
2022/03/24 02:33:06;;;;;;;4.50;1.98;;;24.10;61.90;;;;;;4987069;28;20253;-59
2022/03/24 02:35:36;;;;;;;5.20;2.38;;;24.20;62.00;;;;;;4988752;28;20289;-58
2022/03/24 02:38:09;;;;;;;6.93;2.70;;;24.20;62.00;;;;;;4989205;28;20221;-59
2022/03/24 02:40:39;;;;;;;7.88;3.10;;;24.20;62.00;;;;;;4988435;28;20193;-59
2022/03/24 02:43:10;;;;;;;8.95;2.53;;;24.20;61.80;;;;;;4988721;28;20193;-58
2022/03/24 02:45:40;;;;;;;4.30;1.98;;;24.30;61.80;;;;;;4988962;28;20204;-58
2022/03/24 02:48:11;;;;;;;5.80;2.47;;;24.30;61.70;;;;;;4972132;28;20250;-57
2022/03/24 02:50:42;;;;;;;4.13;2.22;;;24.30;61.70;;;;;;4988513;28;20201;-58
2022/03/24 02:53:14;;;;;;;5.97;2.22;;;24.30;61.50;;;;;;4988081;28;20261;-60
2022/03/24 02:55:45;;;;;;;5.57;2.10;;;24.30;61.40;;;;;;4988688;28;20268;-58
2022/03/24 02:58:15;;;;;;;5.90;2.53;;;24.40;61.50;;;;;;4988378;28;20701;-59
2022/03/24 03:00:46;;;;;;;2.95;1.77;;;24.40;61.60;;;;;;4988812;28;20316;-59
2022/03/24 03:03:17;;;;;;;4.57;2.03;;;24.50;61.50;;;;;;4986311;28;20196;-59
2022/03/24 03:05:47;;;;;;;5.50;2.40;;;24.50;61.50;;;;;;4989069;28;20248;-60
2022/03/24 03:08:20;;;;;;;5.82;2.58;;;24.50;61.40;;;;;;4988545;28;20272;-59
2022/03/24 03:10:51;;;;;;;5.05;2.20;;;24.50;61.40;;;;;;4989372;28;20606;-59
2022/03/24 03:13:21;;;;;;;5.13;2.33;;;24.50;61.40;;;;;;4989090;28;20768;-58
2022/03/24 03:15:52;;;;;;;5.53;2.20;;;24.60;61.40;;;;;;4988800;28;20658;-58
2022/03/24 03:18:22;;;;;;;5.57;2.50;;;24.60;61.40;;;;;;4987812;28;20275;-56
2022/03/24 03:20:53;;;;;;;5.68;2.38;;;24.60;61.20;;;;;;4988988;28;20674;-58
2022/03/24 03:23:25;;;;;;;5.50;2.65;;;24.70;61.30;;;;;;4989538;28;20217;-57
2022/03/24 03:25:56;;;;;;;4.70;2.35;;;24.70;61.20;;;;;;4988298;28;20201;-59
2022/03/24 03:28:27;;;;;;;4.28;2.13;;;24.70;61.10;;;;;;4988867;28;20221;-58
2022/03/24 03:30:58;;;;;;;6.28;2.75;;;24.70;61.00;;;;;;4988333;28;20197;-58
2022/03/24 03:33:29;;;;;;;4.50;2.10;;;24.80;61.10;;;;;;4986275;28;20233;-59
2022/03/24 03:36:00;;;;;;;4.75;2.28;;;24.80;61.00;;;;;;4991825;28;20202;-58
2022/03/24 03:38:33;;;;;;;4.82;1.95;;;24.80;60.90;;;;;;4991861;28;20260;-58
2022/03/24 03:41:04;;;;;;;3.63;2.10;;;24.80;60.80;;;;;;4991852;28;20200;-58
2022/03/24 03:43:35;;;;;;;5.32;2.40;;;24.90;60.80;;;;;;4991926;28;20654;-59
2022/03/24 03:46:05;;;;;;;7.10;2.80;;;24.90;60.70;;;;;;4991874;28;20225;-59
2022/03/24 03:48:36;;;;;;;6.10;2.03;;;24.90;60.80;;;;;;4991901;28;20284;-59
2022/03/24 03:51:07;;;;;;;4.45;2.10;;;24.90;60.80;;;;;;4992546;28;20271;-59
2022/03/24 03:53:41;;;;;;;6.28;2.10;;;24.90;60.60;;;;;;4991502;28;20225;-58
2022/03/24 03:56:12;;;;;;;3.78;1.98;;;24.90;60.70;;;;;;4991604;28;20197;-59
2022/03/24 03:58:43;;;;;;;5.68;2.15;;;25.00;60.70;;;;;;4990348;28;20205;-58
2022/03/24 04:01:13;;;;;;;6.40;2.72;;;25.00;60.70;;;;;;4991460;28;20194;-59
2022/03/24 04:03:44;;;;;;;6.35;2.50;;;25.00;60.60;;;;;;4991375;28;20220;-58
2022/03/24 04:06:15;;;;;;;5.18;2.20;;;25.00;60.60;;;;;;4991829;28;20213;-58
2022/03/24 04:08:47;;;;;;;7.05;2.58;;;25.10;60.60;;;;;;4991182;28;20205;-57
2022/03/24 04:11:19;;;;;;;5.75;2.60;;;25.00;60.50;;;;;;4991734;28;20741;-59
2022/03/24 04:13:50;;;;;;;4.75;2.42;;;25.10;60.60;;;;;;4991086;28;20280;-58
2022/03/24 04:16:20;;;;;;;4.78;2.22;;;25.10;60.50;;;;;;4987749;28;20201;-59
2022/03/24 04:18:51;;;;;;;5.05;2.22;;;25.10;60.50;;;;;;4990351;28;20570;-59
2022/03/24 04:21:21;;;;;;;4.72;2.40;;;25.10;60.40;;;;;;4991186;28;20248;-59
2022/03/24 04:23:54;;;;;;;5.68;2.50;;;25.10;60.20;;;;;;5004338;23;20233;-55
2022/03/24 04:26:24;;;;;;;5.97;2.17;;;25.20;60.40;;;;;;4991377;28;20194;-53
2022/03/24 04:28:55;;;;;;;7.13;2.50;;;25.20;60.40;;;;;;4991756;28;20197;-55
2022/03/24 04:31:26;;;;;;;4.85;2.22;;;25.20;60.40;;;;;;4991482;28;20256;-55
2022/03/24 04:33:56;;;;;;;5.10;2.15;;;25.20;60.30;;;;;;4991940;28;20225;-56
2022/03/24 04:36:27;;;;;;;4.15;2.25;;;25.20;60.20;;;;;;4990061;28;20208;-57
2022/03/24 04:39:01;;;;;;;7.43;2.60;;;25.20;60.10;;;;;;4991384;28;20198;-57
2022/03/24 04:41:31;;;;;;;5.55;2.63;;;25.20;60.10;;;;;;4991164;28;20288;-58
2022/03/24 04:44:03;;;;;;;6.25;2.33;;;25.30;60.20;;;;;;4990909;28;20309;-56
2022/03/24 04:46:33;;;;;;;6.53;3.10;;;25.30;60.30;;;;;;4990349;28;20201;-56
2022/03/24 04:49:04;;;;;;;6.15;2.75;;;25.30;60.40;;;;;;4991252;28;20248;-57
2022/03/24 04:51:34;;;;;;;6.63;2.83;;;25.30;60.30;;;;;;4991339;28;20216;-56
2022/03/24 04:54:07;;;;;;;4.82;2.45;;;25.30;60.30;;;;;;4989125;28;20217;-58
2022/03/24 04:56:37;;;;;;;6.05;2.63;;;25.30;61.10;;;;;;4990632;28;20210;-57
2022/03/24 04:59:08;;;;;;;4.82;2.50;;;25.30;60.30;;;;;;4990439;28;20201;-57
2022/03/24 05:01:38;;;;;;;6.97;2.80;;;25.30;60.30;;;;;;4991443;28;20205;-57
2022/03/24 05:04:10;;;;;;;5.05;2.35;;;25.30;60.20;;;;;;4990251;28;20217;-58
2022/03/24 05:06:40;;;;;;;5.85;2.28;;;25.30;60.20;;;;;;4979742;28;20210;-57
2022/03/24 05:09:13;;;;;;;6.88;2.75;;;25.30;60.30;;;;;;4990283;28;20229;-57
2022/03/24 05:11:44;;;;;;;5.80;2.50;;;25.30;60.10;;;;;;4987073;28;20657;-56
2022/03/24 05:14:14;;;;;;;9.20;2.90;;;25.30;60.10;;;;;;4989712;28;20705;-56
2022/03/24 05:16:46;;;;;;;5.97;2.47;;;25.30;60.00;;;;;;4990385;28;20217;-56
2022/03/24 05:19:16;;;;;;;5.50;2.60;;;25.30;60.00;;;;;;4990269;28;20624;-57
2022/03/24 05:21:47;;;;;;;5.30;2.25;;;25.30;60.00;;;;;;4990120;28;20205;-57
2022/03/24 05:24:19;;;;;;;5.80;2.67;;;25.30;60.00;;;;;;4989946;28;20217;-58
2022/03/24 05:26:50;;;;;;;5.60;2.67;;;25.20;59.90;;;;;;4989775;28;20732;-56
2022/03/24 05:29:20;;;;;;;5.90;2.50;;;25.20;59.90;;;;;;4990774;28;20201;-56
2022/03/24 05:31:51;;;;;;;6.82;2.67;;;25.20;59.90;;;;;;4990355;28;20205;-57
2022/03/24 05:34:22;;;;;;;4.32;2.45;;;25.20;60.00;;;;;;4990207;28;20272;-57
2022/03/24 05:36:53;;;;;;;6.47;2.60;;;25.20;60.00;;;;;;4989890;28;20221;-58
2022/03/24 05:39:25;;;;;;;5.25;2.33;;;25.20;60.10;;;;;;4986924;28;20210;-57
2022/03/24 05:41:57;;;;;;;6.03;2.20;;;25.20;60.20;;;;;;4971884;28;20257;-59
2022/03/24 05:44:28;;;;;;;6.45;2.60;;;25.20;60.10;;;;;;4988374;28;20198;-57
2022/03/24 05:46:59;;;;;;;5.22;2.38;;;25.20;60.00;;;;;;4990090;28;20221;-57
2022/03/24 05:49:30;;;;;;;6.13;2.42;;;25.20;60.10;;;;;;4990017;28;20197;-57
2022/03/24 05:52:00;;;;;;;5.43;2.38;;;25.10;60.80;;;;;;4989741;28;20202;-58
2022/03/24 05:54:33;;;;;;;6.63;2.55;;;25.20;60.00;;;;;;4989457;28;20311;-57
2022/03/24 05:57:03;;;;;;;7.15;2.97;;;25.10;60.00;;;;;;4971128;28;20281;-57
2022/03/24 05:59:34;;;;;;;8.90;3.35;;;25.10;60.00;;;;;;4971237;28;20650;-57
2022/03/24 06:02:04;;;;;;;7.78;3.35;;;25.10;59.90;;;;;;4971395;28;20194;-57
2022/03/24 06:04:36;;;;;;;8.90;3.10;;;25.10;59.80;;;;;;4972954;28;20202;-56
2022/03/24 06:07:07;;;;;;;8.48;3.90;;;25.10;59.80;;;;;;4989764;28;20644;-58
2022/03/24 06:09:40;;;;;;;10.10;3.33;;;25.10;59.70;;;;;;4990443;28;20665;-57
2022/03/24 06:12:12;;;;;;;7.90;3.35;;;25.10;60.30;;;;;;4990117;28;20244;-57
2022/03/24 06:14:43;;;;;;;6.88;2.78;;;25.00;59.60;;;;;;4991022;28;20680;-57
2022/03/24 06:17:13;;;;;;;8.63;3.58;;;25.00;59.50;;;;;;4990646;28;20264;-57
2022/03/24 06:19:45;;;;;;;8.00;3.30;;;25.00;59.50;;;;;;4990568;28;20216;-57
2022/03/24 06:22:15;;;;;;;8.02;3.08;;;24.90;59.40;;;;;;4990871;28;20353;-58
2022/03/24 07:24:21;;;;;;;6.85;3.13;;;24.20;58.90;;;;;;5669375;22;20280;-56
2022/03/24 07:26:52;;;;;;;6.32;2.67;;;24.20;58.90;;;;;;4974392;28;20269;-56
2022/03/24 07:29:22;;;;;;;7.22;3.03;;;24.20;58.90;;;;;;4974751;28;20253;-57
2022/03/24 07:31:53;;;;;;;6.22;2.72;;;24.10;58.80;;;;;;4974427;28;20202;-55
2022/03/24 07:34:25;;;;;;;7.10;2.70;;;24.10;58.90;;;;;;4974535;28;20833;-57
2022/03/24 07:36:55;;;;;;;5.55;2.40;;;24.10;58.90;;;;;;4955114;28;20940;-56
2022/03/24 07:39:28;;;;;;;5.15;2.60;;;24.10;58.90;;;;;;4957414;28;20207;-57
2022/03/24 07:41:59;;;;;;;5.70;2.50;;;24.00;58.80;;;;;;4974042;28;20216;-56
2022/03/24 07:44:29;;;;;;;5.80;2.50;;;24.00;58.80;;;;;;4973855;28;20205;-56
2022/03/24 07:47:00;;;;;;;5.50;2.40;;;24.00;58.80;;;;;;4973925;28;20816;-54
2022/03/24 07:49:31;;;;;;;6.50;2.60;;;23.90;58.80;;;;;;4974318;28;20194;-56
2022/03/24 07:52:01;;;;;;;4.75;2.35;;;23.90;58.90;;;;;;4974193;28;20546;-56
2022/03/24 07:54:52;;;;;;;4.80;2.40;;;23.90;58.90;;;;;;4967507;28;21269;-56
2022/03/24 07:57:23;;;;;;;5.78;2.30;;;23.80;58.90;;;;;;4954482;28;20218;-54
2022/03/24 07:59:53;;;;;;;5.30;2.22;;;23.80;58.90;;;;;;4954852;28;20252;-57
2022/03/24 08:02:24;;;;;;;6.45;2.50;;;23.80;58.90;;;;;;4954770;28;20250;-56
2022/03/24 08:04:54;;;;;;;5.07;2.25;;;23.80;59.00;;;;;;4954217;28;20261;-56
2022/03/24 08:07:25;;;;;;;4.10;2.08;;;23.80;59.00;;;;;;4954169;28;20266;-57
2022/03/24 08:09:58;;;;;;;4.90;2.30;;;23.70;58.90;;;;;;4954071;28;20266;-57
2022/03/24 08:12:28;;;;;;;7.43;2.45;;;23.70;59.00;;;;;;4954275;28;20198;-57
2022/03/24 08:14:59;;;;;;;5.63;2.30;;;23.60;58.50;;;;;;4954300;28;20230;-57
2022/03/24 08:17:29;;;;;;;7.95;2.40;;;23.60;58.80;;;;;;4954308;28;20214;-57
2022/03/24 08:20:00;;;;;;;7.60;2.13;;;23.50;58.90;;;;;;4954387;28;20207;-52
2022/03/24 08:22:30;;;;;;;6.95;2.28;;;23.50;58.90;;;;;;4952937;28;20203;-56
2022/03/24 08:25:08;;;;;;;6.22;2.58;;;23.50;58.90;;;;;;4962511;28;20209;-58
2022/03/24 08:27:39;;;;;;;6.55;2.38;;;23.50;58.90;;;;;;4972931;28;20557;-57
2022/03/24 08:30:10;;;;;;;4.15;2.03;;;23.50;58.90;;;;;;4973463;28;20248;-57
2022/03/24 08:32:40;;;;;;;7.90;2.63;;;23.50;58.90;;;;;;4973322;28;20338;-57
2022/03/24 08:35:12;;;;;;;5.85;2.35;;;23.50;58.90;;;;;;4972878;28;20206;-56
2022/03/24 08:37:43;;;;;;;7.30;2.25;;;23.40;58.80;;;;;;4973311;28;20292;-56
2022/03/24 08:40:16;;;;;;;5.25;2.13;;;23.40;58.80;;;;;;4972404;28;20741;-57
2022/03/24 08:42:47;;;;;;;6.45;2.38;;;23.40;58.90;;;;;;4973378;28;20592;-56
2022/03/24 08:45:18;;;;;;;5.25;2.42;;;23.30;58.80;;;;;;4973163;28;20210;-56
2022/03/24 08:47:49;;;;;;;6.50;2.28;;;23.30;58.90;;;;;;4972959;28;20222;-57
2022/03/24 08:50:19;;;;;;;5.55;2.58;;;23.30;58.90;;;;;;4973287;28;20268;-57
2022/03/24 08:52:50;;;;;;;6.60;2.20;;;23.30;58.90;;;;;;4975513;28;20611;-57
2022/03/24 08:55:23;;;;;;;4.18;1.90;;;23.30;59.00;;;;;;4972337;28;20206;-55
2022/03/24 08:57:54;;;;;;;6.55;2.33;;;23.20;58.90;;;;;;4973159;28;20635;-54
2022/03/24 09:00:25;;;;;;;4.72;2.10;;;23.20;59.00;;;;;;4969973;28;20198;-56
2022/03/24 09:02:55;;;;;;;4.50;1.73;;;23.20;59.00;;;;;;4973118;28;20596;-57
2022/03/24 09:05:26;;;;;;;3.70;1.88;;;23.10;59.00;;;;;;4973092;28;20202;-57
2022/03/24 09:07:57;;;;;;;5.88;2.10;;;23.20;59.00;;;;;;4972970;28;20225;-57
2022/03/24 09:10:29;;;;;;;4.60;1.90;;;23.10;59.00;;;;;;4971970;28;20227;-57
2022/03/24 09:13:00;;;;;;;6.22;2.47;;;23.10;59.00;;;;;;4961103;28;20282;-58
2022/03/24 09:15:31;;;;;;;5.80;1.70;;;23.00;59.00;;;;;;4963518;28;20198;-57
2022/03/24 09:18:01;;;;;;;4.70;1.70;;;23.00;59.00;;;;;;4971022;28;20738;-55
2022/03/24 09:20:32;;;;;;;5.40;2.20;;;23.00;59.00;;;;;;4971623;28;20190;-56
2022/03/24 09:23:02;;;;;;;4.20;2.00;;;23.00;59.00;;;;;;4971755;28;20244;-56
2022/03/24 09:25:35;;;;;;;3.10;1.83;;;23.00;59.00;;;;;;4970417;28;20556;-56
2022/03/24 09:28:06;;;;;;;6.15;2.03;;;22.90;59.00;;;;;;4970559;28;20214;-56
2022/03/24 09:30:37;;;;;;;5.28;1.98;;;22.90;59.00;;;;;;4970548;28;20200;-56
2022/03/24 09:33:08;;;;;;;5.18;1.80;;;22.90;59.00;;;;;;4969181;28;20194;-55
2022/03/24 09:35:38;;;;;;;5.22;1.90;;;22.90;59.00;;;;;;4971446;28;20245;-56
2022/03/24 09:38:09;;;;;;;4.90;1.77;;;22.90;59.00;;;;;;4970665;28;20273;-56
2022/03/24 09:40:42;;;;;;;4.60;1.85;;;22.90;59.10;;;;;;4970219;28;20202;-56
2022/03/24 09:43:14;;;;;;;3.75;1.60;;;22.80;59.00;;;;;;4970228;28;20202;-54
2022/03/24 09:45:45;;;;;;;4.60;2.15;;;22.90;59.10;;;;;;4970358;28;20190;-57
2022/03/24 09:48:15;;;;;;;4.53;1.85;;;22.80;59.10;;;;;;4969407;28;20273;-56
2022/03/24 09:50:47;;;;;;;4.28;1.70;;;22.80;59.10;;;;;;4970545;28;20245;-56
2022/03/24 09:53:18;;;;;;;5.15;1.92;;;22.80;59.10;;;;;;4970827;28;20202;-56
2022/03/24 09:55:51;;;;;;;5.88;1.60;;;22.70;59.00;;;;;;4957926;28;20195;-56
2022/03/24 09:58:28;;;;;;;3.47;1.58;;;22.70;59.10;;;;;;4965408;28;20214;-56
2022/03/24 10:00:58;;;;;;;5.30;1.60;;;22.70;59.10;;;;;;4965980;28;20206;-56
2022/03/24 10:03:29;;;;;;;3.58;1.80;;;22.70;59.10;;;;;;4968528;28;20206;-56
2022/03/24 10:06:02;;;;;;;4.47;1.77;;;22.70;59.10;;;;;;4969674;28;20198;-55
2022/03/24 10:08:33;;;;;;;3.60;1.70;;;22.70;59.10;;;;;;4969280;28;20226;-56
2022/03/24 10:11:07;;;;;;;3.65;1.40;;;22.60;59.10;;;;;;4970490;28;20194;-55
2022/03/24 10:13:49;;;;;;;3.75;1.85;;;22.60;59.10;;;;;;4970512;28;20269;-56
2022/03/24 10:16:44;;;;;;;3.53;1.60;;;22.60;59.10;;;;;;4970280;28;20588;-56
2022/03/24 10:19:16;;;;;;;2.85;1.27;;;22.60;59.10;;;;;;4970202;28;20198;-56
2022/03/24 10:21:48;;;;;;;3.53;1.65;;;22.60;59.10;;;;;;4969610;28;20190;-56
2022/03/24 11:26:26;;;;;;;3.50;1.30;;;22.20;59.20;;;;;;4945496;29;20214;-57
2022/03/24 11:28:58;;;;;;;3.40;1.23;;;22.10;59.20;;;;;;4947947;29;20231;-56
2022/03/24 11:31:31;;;;;;;2.63;1.30;;;22.10;59.20;;;;;;4950137;28;20199;-57
2022/03/24 11:34:04;;;;;;;4.05;1.13;;;22.10;59.20;;;;;;4941624;28;20711;-56
2022/03/24 11:36:35;;;;;;;4.03;1.30;;;22.10;59.20;;;;;;4930167;29;20298;-57
2022/03/24 11:39:09;;;;;;;3.53;1.35;;;22.10;59.20;;;;;;4930340;29;20208;-55
2022/03/24 11:41:45;;;;;;;2.03;1.13;;;22.10;59.30;;;;;;4931000;29;20257;-56
2022/03/24 11:44:19;;;;;;;3.15;1.40;;;22.10;59.30;;;;;;4933547;29;20195;-55
2022/03/24 11:46:55;;;;;;;3.20;1.45;;;22.00;59.20;;;;;;4932660;29;20223;-59
2022/03/24 11:49:26;;;;;;;1.85;1.40;;;22.00;59.20;;;;;;4931697;29;20727;-56
2022/03/24 11:52:24;;;;;;;2.97;1.35;;;22.00;59.20;;;;;;4931627;29;20259;-58
2022/03/24 11:54:57;;;;;;;2.45;1.25;;;22.00;59.20;;;;;;4932325;29;20234;-57
2022/03/24 11:57:33;;;;;;;3.33;1.23;;;22.00;59.20;;;;;;4935153;29;20683;-57
2022/03/24 12:00:43;;;;;;;3.55;1.30;;;22.00;59.20;;;;;;4935205;29;20204;-57
2022/03/24 12:03:42;;;;;;;2.63;1.17;;;22.00;59.20;;;;;;4935509;29;20262;-58
2022/03/24 12:06:15;;;;;;;2.33;1.20;;;22.00;59.20;;;;;;4935596;29;20206;-58
2022/03/24 12:09:02;;;;;;;2.88;1.45;;;21.90;59.20;;;;;;4935282;29;20211;-58
2022/03/24 12:11:44;;;;;;;4.30;1.38;;;21.90;59.20;;;;;;4935006;29;20263;-56
2022/03/24 12:14:22;;;;;;;2.60;1.52;;;21.90;59.20;;;;;;4935318;29;20294;-53
2022/03/24 12:16:53;;;;;;;2.03;1.13;;;21.90;59.20;;;;;;4935374;29;20242;-58
2022/03/24 12:19:44;;;;;;;3.22;1.23;;;21.90;59.20;;;;;;4935831;29;20195;-56
2022/03/24 12:22:33;;;;;;;3.08;1.33;;;21.80;59.20;;;;;;4935548;29;20210;-56
2022/03/24 12:25:25;;;;;;;1.70;1.13;;;21.80;59.20;;;;;;4968201;23;20230;-53
2022/03/24 12:28:04;;;;;;;1.77;1.10;;;21.80;59.20;;;;;;4973007;28;20231;-52
2022/03/24 12:31:10;;;;;;;2.15;0.98;;;21.80;59.20;;;;;;4973462;28;20256;-56
2022/03/24 12:33:49;;;;;;;2.97;1.27;;;21.80;59.30;;;;;;4973529;28;20198;-56
2022/03/24 12:36:40;;;;;;;3.05;1.42;;;21.80;59.20;;;;;;4973372;28;20206;-53
2022/03/24 12:39:11;;;;;;;3.22;1.30;;;21.80;59.30;;;;;;4973301;28;20655;-55
2022/03/24 12:41:42;;;;;;;3.75;1.23;;;21.80;59.30;;;;;;4972832;28;20237;-55
2022/03/24 12:44:13;;;;;;;3.05;1.00;;;21.80;59.90;;;;;;4973351;28;20198;-55
2022/03/24 12:46:47;;;;;;;3.85;1.60;;;21.80;59.30;;;;;;4973489;28;20253;-51
2022/03/24 12:49:38;;;;;;;2.75;1.23;;;21.70;59.20;;;;;;4973085;28;20202;-48
2022/03/24 12:52:11;;;;;;;3.10;1.40;;;21.70;59.20;;;;;;4971336;28;20951;-54
2022/03/24 12:54:48;;;;;;;2.13;1.13;;;21.70;59.20;;;;;;4953810;28;20313;-51
2022/03/24 12:57:33;;;;;;;3.10;1.30;;;21.70;59.20;;;;;;4958408;28;20680;-54
2022/03/24 13:00:05;;;;;;;2.83;1.17;;;21.70;59.20;;;;;;4973844;28;20205;-54
2022/03/24 13:02:38;;;;;;;2.28;1.08;;;21.70;59.20;;;;;;4973572;28;20257;-56
2022/03/24 13:05:11;;;;;;;2.15;1.02;;;21.70;59.20;;;;;;4972973;28;20202;-54
2022/03/24 13:07:42;;;;;;;1.67;1.00;;;21.70;59.20;;;;;;4972198;28;20265;-54
2022/03/24 13:10:14;;;;;;;2.38;1.15;;;21.70;59.30;;;;;;4972618;28;20201;-52
2022/03/24 13:12:46;;;;;;;2.60;1.02;;;21.60;59.20;;;;;;4972630;28;20203;-54
2022/03/24 13:15:27;;;;;;;3.08;1.30;;;21.60;59.20;;;;;;4972581;28;20221;-55
2022/03/24 13:18:01;;;;;;;1.65;0.90;;;21.60;59.20;;;;;;4972682;28;20301;-51
2022/03/24 13:20:39;;;;;;;2.15;1.17;;;21.60;59.20;;;;;;4972525;28;20238;-54
2022/03/24 13:23:10;;;;;;;1.77;1.05;;;21.60;59.20;;;;;;4972573;28;20293;-53
2022/03/24 13:25:42;;;;;;;2.78;1.13;;;21.60;59.20;;;;;;4984040;23;20285;-58
2022/03/24 13:28:14;;;;;;;1.38;0.90;;;21.60;59.30;;;;;;4969270;28;20229;-59
2022/03/24 13:30:45;;;;;;;2.83;1.38;;;21.60;59.30;;;;;;4951579;29;20700;-59
2022/03/24 13:33:18;;;;;;;2.60;1.20;;;21.50;59.20;;;;;;4952855;28;20253;-58
2022/03/24 13:35:51;;;;;;;2.58;1.02;;;21.50;59.20;;;;;;4952504;28;20229;-56
2022/03/24 13:38:24;;;;;;;5.00;1.27;;;21.50;59.20;;;;;;4952534;28;20222;-57
2022/03/24 13:40:57;;;;;;;2.70;1.00;;;21.50;59.20;;;;;;4952318;28;20290;-58
2022/03/24 13:43:29;;;;;;;1.70;1.13;;;21.50;59.20;;;;;;4963631;28;20206;-57
2022/03/24 13:45:59;;;;;;;1.58;1.00;;;21.50;59.20;;;;;;4971825;28;20202;-62
2022/03/24 13:48:32;;;;;;;2.13;1.23;;;21.50;59.20;;;;;;4971700;28;20284;-62
2022/03/24 13:51:05;;;;;;;2.10;1.08;;;21.50;59.20;;;;;;4956014;28;20266;-58
2022/03/24 13:53:35;;;;;;;1.55;0.90;;;21.50;59.20;;;;;;4952598;28;20671;-57
2022/03/24 13:56:10;;;;;;;1.83;0.93;;;21.50;59.20;;;;;;4952349;28;20309;-56
2022/03/24 13:58:43;;;;;;;1.50;1.10;;;21.50;59.20;;;;;;4964855;28;20217;-61
2022/03/24 14:01:15;;;;;;;2.15;1.20;;;21.50;59.20;;;;;;4971768;28;20195;-62
2022/03/24 14:03:49;;;;;;;2.10;0.93;;;21.40;59.10;;;;;;4971366;28;20202;-59
2022/03/24 14:06:22;;;;;;;1.95;0.88;;;21.40;59.20;;;;;;4971326;28;20776;-59
2022/03/24 14:08:54;;;;;;;2.60;1.17;;;21.40;59.20;;;;;;4971675;28;20672;-59
2022/03/24 14:11:25;;;;;;;1.88;1.00;;;21.40;59.20;;;;;;4971773;28;20202;-59
2022/03/24 14:13:58;;;;;;;2.25;1.15;;;21.40;59.20;;;;;;4970992;28;20198;-60
2022/03/24 14:16:30;;;;;;;2.25;0.90;;;21.40;59.20;;;;;;4971627;28;20257;-61
2022/03/24 14:19:14;;;;;;;1.48;0.90;;;21.40;59.20;;;;;;4971731;28;20198;-60
2022/03/24 14:21:47;;;;;;;4.45;1.30;;;21.30;59.10;;;;;;4933516;29;20262;-61
2022/03/24 14:24:33;;;;;;;1.80;0.93;;;21.40;59.20;;;;;;4933163;29;20207;-61
2022/03/24 14:27:06;;;;;;;1.08;0.90;;;21.30;59.10;;;;;;4932280;29;20695;-59
2022/03/24 14:29:38;;;;;;;2.88;1.10;;;21.30;59.10;;;;;;4969946;28;20614;-60
2022/03/24 14:32:21;;;;;;;3.08;0.90;;;21.30;59.10;;;;;;4971896;28;20198;-59
2022/03/24 14:35:12;;;;;;;3.25;0.93;;;21.30;59.10;;;;;;4971950;28;20222;-59
2022/03/24 14:37:45;;;;;;;2.22;1.00;;;21.30;59.10;;;;;;4971612;28;20713;-60
2022/03/24 14:40:17;;;;;;;1.40;0.82;;;21.30;59.10;;;;;;4971175;28;20202;-61
2022/03/24 14:42:48;;;;;;;2.47;1.15;;;21.30;59.10;;;;;;4970562;28;20227;-57
2022/03/24 14:45:18;;;;;;;2.13;0.90;;;21.30;59.10;;;;;;4971094;28;20194;-60
2022/03/24 14:47:49;;;;;;;2.15;0.90;;;21.30;59.10;;;;;;4970936;28;20277;-61
2022/03/24 14:50:21;;;;;;;2.20;1.00;;;21.30;59.10;;;;;;4962593;28;20265;-60
2022/03/24 14:52:52;;;;;;;1.67;0.90;;;21.20;59.10;;;;;;4969148;28;20264;-59
2022/03/24 14:55:22;;;;;;;1.90;0.90;;;21.20;59.10;;;;;;4970951;28;20233;-60
2022/03/24 14:57:53;;;;;;;1.70;1.13;;;21.20;59.10;;;;;;4956521;28;20210;-60
2022/03/24 15:00:24;;;;;;;2.45;0.90;;;21.20;59.10;;;;;;4971160;28;20206;-59
2022/03/24 15:02:55;;;;;;;1.50;0.75;;;21.20;59.10;;;;;;4971151;28;20208;-60
2022/03/24 15:05:28;;;;;;;1.10;0.80;;;21.20;59.10;;;;;;4971544;28;20281;-59
2022/03/24 15:07:58;;;;;;;2.25;0.80;;;21.20;59.10;;;;;;4971075;28;20519;-58
2022/03/24 15:10:29;;;;;;;2.97;1.30;;;21.20;59.10;;;;;;4971153;28;20256;-61
2022/03/24 15:12:59;;;;;;;1.40;1.02;;;21.20;59.10;;;;;;4970776;28;20198;-56
2022/03/24 15:18:16;;;;;;;2.30;1.00;;;21.20;59.10;;;;;;4971384;28;20213;-59
2022/03/24 15:20:49;;;;;;;1.05;0.80;;;21.20;59.10;;;;;;4957966;28;20254;-61